Time;durP1;ratioP1;P1;durP2;ratioP2;P2;SDS_P1;SDS_P2;PMS_P1;PMS_P2;Temp;Humidity;BMP_temperature;BMP_pressure;BME280_temperature;BME280_humidity;BME280_pressure;Samples;Min_cycle;Max_cycle;Signal;HPM_P1;HPM_P2
2021/04/22 00:00:09;;;;;;;1.65;0.85;;;7.40;99.90;;;;;;5013702;28;20217;-76
2021/04/22 00:02:35;;;;;;;0.65;0.65;;;7.20;99.90;;;;;;5013881;28;20176;-76
2021/04/22 00:05:06;;;;;;;1.23;0.85;;;7.30;99.90;;;;;;5013712;28;20161;-77
2021/04/22 00:07:32;;;;;;;0.20;0.20;;;7.30;99.90;;;;;;5013711;28;20192;-75
2021/04/22 00:09:58;;;;;;;0.35;0.35;;;7.30;99.90;;;;;;5012891;28;20643;-75
2021/04/22 00:12:23;;;;;;;7.43;0.70;;;7.20;99.90;;;;;;5013550;28;20205;-76
2021/04/22 00:14:49;;;;;;;0.95;0.65;;;7.20;99.90;;;;;;5013760;28;20164;-77
2021/04/22 00:17:16;;;;;;;0.57;0.52;;;7.10;99.90;;;;;;5013560;28;20196;-78
2021/04/22 00:19:42;;;;;;;0.52;0.52;;;6.90;99.90;;;;;;5013601;28;20175;-77
2021/04/22 00:22:08;;;;;;;0.88;0.88;;;7.00;99.90;;;;;;5013613;28;20173;-77
2021/04/22 00:24:33;;;;;;;0.40;0.40;;;7.10;99.90;;;;;;5013512;28;20675;-76
2021/04/22 00:26:59;;;;;;;0.32;0.32;;;7.10;99.90;;;;;;5013513;28;20255;-76
2021/04/22 00:29:25;;;;;;;2.22;0.85;;;7.10;99.90;;;;;;5029221;28;20189;-76
2021/04/22 00:31:50;;;;;;;0.30;0.30;;;7.10;99.90;;;;;;5013383;28;20161;-75
2021/04/22 00:34:16;;;;;;;0.60;0.60;;;7.10;99.90;;;;;;5013519;28;20613;-75
2021/04/22 00:36:41;;;;;;;1.48;1.42;;;7.00;99.90;;;;;;5013317;28;20191;-78
2021/04/22 00:39:07;;;;;;;0.30;0.30;;;6.90;99.90;;;;;;5013410;28;20199;-78
2021/04/22 00:41:33;;;;;;;0.22;0.22;;;6.80;99.90;;;;;;5013427;28;20179;-76
2021/04/22 00:43:59;;;;;;;21.77;2.00;;;6.70;99.90;;;;;;5013898;28;20168;-76
2021/04/22 00:46:24;;;;;;;0.20;0.20;;;6.80;99.90;;;;;;5013522;28;20180;-78
2021/04/22 00:48:50;;;;;;;6.90;2.03;;;7.00;99.90;;;;;;5013227;28;20200;-76
2021/04/22 00:51:16;;;;;;;3.20;1.80;;;7.10;99.90;;;;;;5012019;28;20188;-77
2021/04/22 00:53:43;;;;;;;5.13;1.05;;;7.10;99.90;;;;;;5013118;28;20210;-76
2021/04/22 00:56:08;;;;;;;0.73;0.73;;;7.00;99.90;;;;;;5013140;28;20180;-77
2021/04/22 00:58:34;;;;;;;28.05;0.95;;;6.70;99.90;;;;;;5013191;28;20184;-77
2021/04/22 01:01:01;;;;;;;0.30;0.30;;;6.80;99.90;;;;;;5011703;28;20224;-76
2021/04/22 01:03:28;;;;;;;0.30;0.30;;;6.90;99.90;;;;;;5013184;28;20161;-76
2021/04/22 01:05:59;;;;;;;0.20;0.20;;;6.90;99.90;;;;;;5013040;28;20220;-76
2021/04/22 01:08:26;;;;;;;4.57;2.83;;;6.80;99.90;;;;;;5011901;28;20177;-76
2021/04/22 01:10:51;;;;;;;3.30;0.73;;;6.80;99.90;;;;;;5028258;28;20176;-77
2021/04/22 01:13:17;;;;;;;0.20;0.20;;;6.90;99.90;;;;;;5012946;28;20552;-76
2021/04/22 01:15:43;;;;;;;2.10;1.30;;;7.00;99.90;;;;;;5012942;28;20215;-76
2021/04/22 01:18:10;;;;;;;0.82;0.82;;;7.00;99.90;;;;;;5013333;28;20214;-77
2021/04/22 01:20:41;;;;;;;9.43;1.75;;;6.80;99.90;;;;;;5014417;28;20184;-78
2021/04/22 01:23:07;;;;;;;2.05;1.95;;;6.70;99.90;;;;;;5016804;28;20200;-77
2021/04/22 01:25:43;;;;;;;0.20;0.20;;;6.60;99.90;;;;;;5016562;28;20173;-77
2021/04/22 01:28:12;;;;;;;0.75;0.75;;;6.60;99.90;;;;;;5016794;28;20226;-76
2021/04/22 01:30:46;;;;;;;4.53;1.38;;;6.80;99.90;;;;;;5017061;28;20173;-77
2021/04/22 01:33:15;;;;;;;0.68;0.68;;;6.80;99.90;;;;;;5016641;28;20208;-77
2021/04/22 01:35:43;;;;;;;0.30;0.30;;;6.60;99.90;;;;;;5016429;28;20168;-75
2021/04/22 01:38:10;;;;;;;0.30;0.30;;;6.30;99.90;;;;;;5031931;28;20160;-75
2021/04/22 01:40:36;;;;;;;30.17;0.90;;;6.40;99.90;;;;;;5016488;28;20161;-75
2021/04/22 01:43:03;;;;;;;0.50;0.50;;;6.30;99.90;;;;;;5031649;28;20173;-77
2021/04/22 01:45:28;;;;;;;0.20;0.20;;;6.40;99.90;;;;;;5016438;28;20256;-76
2021/04/22 01:47:54;;;;;;;9.30;1.23;;;6.40;99.90;;;;;;5016176;28;20700;-75
2021/04/22 01:50:28;;;;;;;1.27;0.28;;;6.50;99.90;;;;;;5031623;28;20182;-77
2021/04/22 01:52:56;;;;;;;0.30;0.30;;;6.50;99.90;;;;;;5016417;28;20219;-75
2021/04/22 01:55:30;;;;;;;1.08;1.08;;;6.40;99.90;;;;;;5016232;28;20521;-75
2021/04/22 01:57:56;;;;;;;0.32;0.32;;;6.40;99.90;;;;;;5016098;28;20183;-76
2021/04/22 02:00:28;;;;;;;0.50;0.50;;;6.40;99.90;;;;;;5016041;28;20741;-76
2021/04/22 02:02:54;;;;;;;0.40;0.40;;;6.40;99.90;;;;;;5031305;28;20779;-75
2021/04/22 02:05:21;;;;;;;0.20;0.20;;;6.40;99.90;;;;;;5015031;28;20275;-75
2021/04/22 02:07:51;;;;;;;0.93;0.73;;;6.40;99.90;;;;;;5017423;28;20189;-75
2021/04/22 02:10:17;;;;;;;2.20;1.85;;;6.20;99.90;;;;;;5017438;28;20165;-76
2021/04/22 02:12:42;;;;;;;1.08;0.68;;;6.00;99.90;;;;;;5046367;28;20179;-74
2021/04/22 02:15:14;;;;;;;2.28;1.42;;;6.00;99.90;;;;;;5038600;28;20199;-74
2021/04/22 02:17:39;;;;;;;2.45;1.73;;;6.00;99.90;;;;;;5037977;28;20172;-74
2021/04/22 02:20:09;;;;;;;0.43;0.43;;;6.10;99.90;;;;;;5049857;28;20312;-73
2021/04/22 02:22:35;;;;;;;0.20;0.20;;;6.00;99.90;;;;;;5037368;28;20220;-73
2021/04/22 02:25:04;;;;;;;0.30;0.30;;;6.00;99.90;;;;;;5037483;28;20165;-74
2021/04/22 02:27:30;;;;;;;1.75;1.17;;;6.10;99.90;;;;;;5028455;28;20242;-73
2021/04/22 02:29:56;;;;;;;0.30;0.30;;;6.10;99.90;;;;;;5016085;28;20656;-74
2021/04/22 02:32:21;;;;;;;0.40;0.40;;;6.10;99.90;;;;;;5014612;28;20255;-74
2021/04/22 02:34:47;;;;;;;0.82;0.82;;;6.10;99.90;;;;;;5015593;28;20171;-75
2021/04/22 02:37:13;;;;;;;1.20;1.20;;;6.10;99.90;;;;;;5015487;28;20185;-74
2021/04/22 02:39:38;;;;;;;0.20;0.20;;;6.10;99.90;;;;;;5015351;28;20258;-75
2021/04/22 02:42:04;;;;;;;0.73;0.73;;;6.00;99.90;;;;;;5015332;28;20188;-75
2021/04/22 02:44:30;;;;;;;4.40;1.50;;;5.90;99.90;;;;;;5015538;28;20172;-75
2021/04/22 02:46:55;;;;;;;0.57;0.57;;;5.90;99.90;;;;;;5015140;28;20636;-75
2021/04/22 02:49:21;;;;;;;0.75;0.75;;;5.80;99.90;;;;;;5015273;28;20168;-74
2021/04/22 02:51:47;;;;;;;0.40;0.40;;;5.80;99.90;;;;;;5015113;28;20149;-75
2021/04/22 02:54:12;;;;;;;0.50;0.50;;;5.70;99.90;;;;;;5015156;28;20543;-75
2021/04/22 02:56:38;;;;;;;0.30;0.30;;;5.80;99.90;;;;;;5015031;28;20212;-75
2021/04/22 02:59:07;;;;;;;1.30;1.30;;;5.80;99.90;;;;;;5014768;28;20616;-76
2021/04/22 03:01:32;;;;;;;1.15;0.88;;;5.80;99.90;;;;;;5015111;28;20668;-76
2021/04/22 03:04:00;;;;;;;0.32;0.32;;;5.90;99.90;;;;;;5014821;28;20208;-75
2021/04/22 03:06:26;;;;;;;0.77;0.77;;;5.90;99.90;;;;;;5014842;28;20184;-76
2021/04/22 03:08:52;;;;;;;1.05;1.05;;;5.80;99.90;;;;;;5014823;28;20621;-75
2021/04/22 03:11:17;;;;;;;12.50;1.95;;;5.70;99.90;;;;;;5014821;28;20160;-74
2021/04/22 03:13:43;;;;;;;0.30;0.30;;;5.70;99.90;;;;;;5014740;28;20168;-75
2021/04/22 03:16:09;;;;;;;0.35;0.35;;;5.60;99.90;;;;;;5014572;28;20621;-75
2021/04/22 03:18:34;;;;;;;0.50;0.50;;;5.70;99.90;;;;;;5014635;28;20163;-75
2021/04/22 03:21:00;;;;;;;3.85;0.55;;;5.70;99.90;;;;;;5014659;28;20172;-76
2021/04/22 03:23:25;;;;;;;34.85;2.10;;;5.70;99.90;;;;;;5014501;28;20212;-75
2021/04/22 03:25:51;;;;;;;0.30;0.30;;;5.80;99.90;;;;;;5013408;28;20652;-76
2021/04/22 03:28:16;;;;;;;0.32;0.32;;;5.80;99.90;;;;;;5014526;28;20169;-77
2021/04/22 03:30:42;;;;;;;5.57;1.55;;;5.80;99.90;;;;;;5014872;28;20251;-75
2021/04/22 03:33:08;;;;;;;2.38;1.13;;;5.70;99.90;;;;;;5014368;28;20239;-73
2021/04/22 03:35:34;;;;;;;0.40;0.40;;;5.60;99.90;;;;;;5014222;28;20506;-74
2021/04/22 03:38:02;;;;;;;1.05;0.50;;;5.50;99.90;;;;;;5014288;28;20247;-74
2021/04/22 03:40:28;;;;;;;0.28;0.28;;;5.40;99.90;;;;;;5014244;28;20165;-74
2021/04/22 03:42:55;;;;;;;1.10;1.10;;;5.50;99.90;;;;;;5014013;28;20199;-74
2021/04/22 03:45:22;;;;;;;7.60;1.48;;;5.50;99.90;;;;;;5014210;28;20165;-75
2021/04/22 03:47:48;;;;;;;0.55;0.55;;;5.60;99.90;;;;;;5014000;28;20192;-75
2021/04/22 03:50:16;;;;;;;0.20;0.20;;;5.60;99.90;;;;;;5029220;28;20382;-75
2021/04/22 03:52:44;;;;;;;0.40;0.40;;;5.60;99.90;;;;;;5014044;28;20263;-75
2021/04/22 03:55:10;;;;;;;0.30;0.30;;;5.70;99.90;;;;;;5014139;28;20233;-75
2021/04/22 03:57:36;;;;;;;0.47;0.47;;;5.50;99.90;;;;;;5012649;28;20573;-75
2021/04/22 04:00:04;;;;;;;2.75;1.88;;;5.50;99.90;;;;;;5028770;28;20574;-74
2021/04/22 04:02:30;;;;;;;1.25;1.25;;;5.50;99.90;;;;;;5014505;28;20550;-75
2021/04/22 04:04:55;;;;;;;0.68;0.68;;;5.70;99.90;;;;;;5014082;28;20163;-77
2021/04/22 04:07:21;;;;;;;0.57;0.55;;;5.80;99.90;;;;;;5013716;28;20610;-76
2021/04/22 04:09:46;;;;;;;1.65;1.15;;;5.90;99.90;;;;;;5013627;28;20562;-73
2021/04/22 04:12:15;;;;;;;1.83;0.82;;;5.90;99.90;;;;;;5013572;28;20160;-74
2021/04/22 04:14:41;;;;;;;0.20;0.20;;;5.90;99.90;;;;;;5028748;28;20184;-74
2021/04/22 04:17:06;;;;;;;0.70;0.47;;;6.00;99.90;;;;;;5013329;28;20188;-75
2021/04/22 04:19:32;;;;;;;0.43;0.43;;;5.90;99.90;;;;;;5013651;28;20175;-75
2021/04/22 04:21:58;;;;;;;0.57;0.57;;;5.70;99.90;;;;;;5013473;28;20149;-76
2021/04/22 04:24:24;;;;;;;1.38;1.38;;;5.60;99.90;;;;;;5013512;28;20169;-75
2021/04/22 04:26:49;;;;;;;0.52;0.52;;;5.70;99.90;;;;;;5013445;28;20188;-76
2021/04/22 04:29:15;;;;;;;0.20;0.20;;;5.80;99.90;;;;;;5013525;28;20230;-78
2021/04/22 04:31:44;;;;;;;0.20;0.20;;;5.70;99.90;;;;;;5012379;28;20204;-78
2021/04/22 04:34:10;;;;;;;1.38;0.73;;;5.80;99.90;;;;;;5013429;28;20242;-76
2021/04/22 04:36:35;;;;;;;0.80;0.80;;;5.80;99.90;;;;;;5013122;28;20660;-74
2021/04/22 04:39:01;;;;;;;1.58;1.48;;;5.80;99.90;;;;;;5013437;28;20367;-74
2021/04/22 04:41:27;;;;;;;0.82;0.82;;;5.90;99.90;;;;;;5012871;28;20604;-73
2021/04/22 04:43:53;;;;;;;0.45;0.45;;;5.90;99.90;;;;;;5013106;28;20539;-76
2021/04/22 04:46:19;;;;;;;0.85;0.85;;;5.90;99.90;;;;;;5028447;28;20189;-74
2021/04/22 04:48:45;;;;;;;0.45;0.45;;;6.00;99.90;;;;;;5013266;28;20163;-74
2021/04/22 04:51:11;;;;;;;0.40;0.40;;;5.90;99.90;;;;;;5013483;28;20640;-74
2021/04/22 04:53:36;;;;;;;1.38;1.10;;;5.90;99.90;;;;;;5013340;28;20636;-74
2021/04/22 04:56:02;;;;;;;0.30;0.30;;;5.80;99.90;;;;;;5030602;28;20279;-74
2021/04/22 04:58:28;;;;;;;0.30;0.30;;;5.80;99.90;;;;;;5017372;28;20517;-75
2021/04/22 05:00:53;;;;;;;2.17;0.60;;;5.80;99.90;;;;;;5016858;28;20220;-74
2021/04/22 05:03:19;;;;;;;0.50;0.50;;;5.70;99.90;;;;;;5017021;28;20231;-75
2021/04/22 05:05:44;;;;;;;1.25;1.25;;;5.60;99.90;;;;;;5032128;28;20171;-74
2021/04/22 05:08:10;;;;;;;0.45;0.45;;;5.50;99.90;;;;;;5017092;28;20645;-75
2021/04/22 05:10:36;;;;;;;1.33;0.77;;;5.40;99.90;;;;;;5016976;28;20165;-75
2021/04/22 05:13:01;;;;;;;1.45;0.82;;;5.60;99.90;;;;;;5016789;28;20176;-76
2021/04/22 05:15:27;;;;;;;1.67;1.58;;;5.70;99.90;;;;;;5016800;28;20520;-74
2021/04/22 05:17:53;;;;;;;0.60;0.60;;;5.80;99.90;;;;;;5015533;28;20246;-75
2021/04/22 05:20:19;;;;;;;9.75;1.70;;;5.80;99.90;;;;;;5015531;28;20180;-75
2021/04/22 05:22:44;;;;;;;0.50;0.50;;;5.70;99.90;;;;;;5016541;28;20250;-76
2021/04/22 05:25:10;;;;;;;0.68;0.68;;;5.60;99.90;;;;;;5016673;28;20625;-75
2021/04/22 05:27:38;;;;;;;31.50;2.05;;;5.60;99.90;;;;;;5015156;28;20683;-74
2021/04/22 05:30:05;;;;;;;0.32;0.32;;;5.70;99.90;;;;;;5016555;28;20632;-75
2021/04/22 05:32:31;;;;;;;6.72;0.60;;;5.80;99.90;;;;;;5016238;28;20174;-74
2021/04/22 05:34:57;;;;;;;2.47;1.50;;;6.00;99.90;;;;;;5016480;28;20243;-74
2021/04/22 05:37:22;;;;;;;0.65;0.65;;;5.90;99.90;;;;;;5016418;28;20188;-76
2021/04/22 05:39:48;;;;;;;1.55;1.45;;;6.10;99.90;;;;;;5016401;28;20581;-76
2021/04/22 05:42:14;;;;;;;0.40;0.40;;;6.10;99.90;;;;;;5016354;28;20273;-76
2021/04/22 05:44:42;;;;;;;0.75;0.75;;;6.20;99.90;;;;;;5016243;28;20164;-75
2021/04/22 05:47:07;;;;;;;1.88;1.05;;;6.20;99.90;;;;;;5031567;28;20181;-76
2021/04/22 05:49:33;;;;;;;2.90;1.60;;;6.10;99.90;;;;;;5016147;28;20222;-77
2021/04/22 05:51:58;;;;;;;0.68;0.68;;;6.00;99.90;;;;;;5016338;28;20199;-75
2021/04/22 05:54:25;;;;;;;0.30;0.30;;;6.20;99.90;;;;;;5016096;28;20165;-76
2021/04/22 05:56:51;;;;;;;0.52;0.52;;;6.10;99.90;;;;;;5015893;28;20180;-75
2021/04/22 05:59:16;;;;;;;15.10;2.20;;;6.20;99.90;;;;;;5015791;28;20311;-76
2021/04/22 06:01:42;;;;;;;0.77;0.55;;;6.30;99.90;;;;;;5016076;28;20499;-77
2021/04/22 06:04:08;;;;;;;0.20;0.20;;;6.40;99.90;;;;;;5015772;28;20208;-76
2021/04/22 06:06:34;;;;;;;1.58;0.95;;;6.50;99.90;;;;;;5014624;28;20189;-77
2021/04/22 06:08:59;;;;;;;7.95;1.90;;;6.60;99.90;;;;;;5015680;28;20714;-77
2021/04/22 06:11:25;;;;;;;0.50;0.50;;;6.70;99.90;;;;;;5015931;28;20492;-76
2021/04/22 06:13:51;;;;;;;0.40;0.40;;;6.80;99.90;;;;;;5015948;28;20195;-77
2021/04/22 06:16:17;;;;;;;39.97;6.32;;;7.00;99.90;;;;;;5015803;28;20660;-75
2021/04/22 06:18:42;;;;;;;1.45;1.05;;;7.10;99.90;;;;;;5015373;28;20180;-75
2021/04/22 06:21:09;;;;;;;1.10;1.10;;;7.10;99.90;;;;;;5015366;28;20157;-75
2021/04/22 06:23:35;;;;;;;21.67;2.08;;;7.20;99.90;;;;;;5013721;28;20569;-75
2021/04/22 06:26:01;;;;;;;1.30;0.93;;;7.30;99.90;;;;;;5015426;28;20188;-77
2021/04/22 06:28:27;;;;;;;2.88;1.48;;;7.30;99.90;;;;;;5015189;28;20175;-75
2021/04/22 06:30:52;;;;;;;1.27;1.05;;;7.40;99.90;;;;;;5015987;28;20184;-76
2021/04/22 06:33:19;;;;;;;0.77;0.77;;;7.50;99.90;;;;;;5015513;28;20212;-75
2021/04/22 06:35:45;;;;;;;0.30;0.30;;;7.70;99.90;;;;;;5015114;28;20169;-75
2021/04/22 06:38:10;;;;;;;0.73;0.73;;;7.90;99.90;;;;;;5015241;28;20219;-75
2021/04/22 06:40:37;;;;;;;1.73;1.63;;;7.90;99.90;;;;;;5015172;28;20164;-75
2021/04/22 06:43:02;;;;;;;18.00;3.30;;;8.00;99.90;;;;;;5015082;28;20208;-76
2021/04/22 06:45:28;;;;;;;3.33;0.98;;;8.20;99.90;;;;;;5015044;28;20172;-75
2021/04/22 06:47:54;;;;;;;2.45;1.13;;;8.10;99.90;;;;;;5013702;28;20743;-75
2021/04/22 06:50:22;;;;;;;5.93;1.58;;;7.90;99.90;;;;;;5015049;28;20252;-77
2021/04/22 06:52:48;;;;;;;0.73;0.73;;;7.80;99.90;;;;;;5014979;28;20163;-76
2021/04/22 06:55:24;;;;;;;1.73;1.60;;;7.80;99.90;;;;;;5014941;28;20174;-77
2021/04/22 06:57:50;;;;;;;1.17;0.65;;;7.70;99.90;;;;;;5014877;28;20188;-77
2021/04/22 07:00:20;;;;;;;0.82;0.82;;;7.80;99.90;;;;;;5014943;28;20224;-76
2021/04/22 07:02:46;;;;;;;16.50;1.38;;;8.10;99.90;;;;;;5014625;28;20231;-77
2021/04/22 07:05:13;;;;;;;0.75;0.75;;;8.00;99.90;;;;;;5014929;28;20226;-76
2021/04/22 07:07:39;;;;;;;0.90;0.77;;;8.00;99.90;;;;;;5014741;28;20185;-75
2021/04/22 07:10:09;;;;;;;0.82;0.70;;;8.10;99.90;;;;;;5014708;28;20175;-75
2021/04/22 07:12:34;;;;;;;2.13;1.77;;;8.00;99.90;;;;;;5014552;28;20168;-75
2021/04/22 07:15:01;;;;;;;0.43;0.43;;;7.90;99.90;;;;;;5014600;28;20183;-77
2021/04/22 07:17:26;;;;;;;0.55;0.55;;;8.00;99.90;;;;;;5014269;28;20234;-76
2021/04/22 07:19:54;;;;;;;3.05;1.20;;;8.10;99.90;;;;;;5014234;28;20659;-75
2021/04/22 07:22:21;;;;;;;3.28;1.85;;;8.30;99.90;;;;;;5014522;28;20200;-75
2021/04/22 07:24:46;;;;;;;0.20;0.20;;;8.40;99.90;;;;;;5014547;28;20211;-75
2021/04/22 07:27:12;;;;;;;0.80;0.80;;;8.60;99.90;;;;;;5014159;28;20196;-75
2021/04/22 07:29:40;;;;;;;0.88;0.40;;;8.80;99.90;;;;;;5014712;28;20275;-77
2021/04/22 07:32:06;;;;;;;0.40;0.40;;;8.80;99.90;;;;;;5014380;28;20211;-77
2021/04/22 07:34:32;;;;;;;5.15;1.38;;;8.70;99.90;;;;;;5014179;28;20560;-77
2021/04/22 07:36:58;;;;;;;0.90;0.88;;;8.80;99.90;;;;;;5014190;28;20235;-76
2021/04/22 07:39:23;;;;;;;5.38;0.43;;;9.00;99.90;;;;;;5029308;28;20648;-76
2021/04/22 07:41:49;;;;;;;8.32;2.03;;;8.70;99.90;;;;;;5014112;28;20194;-76
2021/04/22 07:44:14;;;;;;;0.45;0.45;;;8.50;99.90;;;;;;5013955;28;20529;-75
2021/04/22 07:46:40;;;;;;;1.50;1.40;;;8.60;99.90;;;;;;5029025;28;20181;-75
2021/04/22 07:49:06;;;;;;;16.67;1.23;;;8.90;99.90;;;;;;5014157;28;20652;-76
2021/04/22 07:51:32;;;;;;;0.35;0.35;;;8.70;99.90;;;;;;5013879;28;20160;-76
2021/04/22 07:53:58;;;;;;;0.63;0.63;;;8.70;99.90;;;;;;5029237;28;20173;-78
2021/04/22 07:56:23;;;;;;;0.88;0.88;;;8.70;99.90;;;;;;5014025;28;20184;-76
2021/04/22 07:58:49;;;;;;;0.98;0.98;;;9.00;99.90;;;;;;5013714;28;20165;-75
2021/04/22 08:01:15;;;;;;;0.40;0.40;;;9.30;99.90;;;;;;5013759;28;20299;-76
2021/04/22 08:03:40;;;;;;;0.45;0.45;;;9.20;99.90;;;;;;5013638;28;20216;-76
2021/04/22 08:06:06;;;;;;;2.33;1.02;;;9.30;99.90;;;;;;5013668;28;20188;-75
2021/04/22 08:08:32;;;;;;;2.75;1.00;;;9.30;99.90;;;;;;5013822;28;20687;-76
2021/04/22 08:10:58;;;;;;;0.68;0.63;;;9.10;99.90;;;;;;5013685;28;20188;-76
2021/04/22 08:13:24;;;;;;;2.35;0.63;;;9.20;99.90;;;;;;5014240;28;20173;-76
2021/04/22 08:15:53;;;;;;;0.20;0.20;;;9.50;99.90;;;;;;5014693;28;20160;-76
2021/04/22 08:18:20;;;;;;;0.20;0.20;;;9.40;99.90;;;;;;5022439;28;20210;-75
2021/04/22 08:20:46;;;;;;;0.50;0.50;;;9.50;99.90;;;;;;5022206;28;20233;-75
2021/04/22 08:23:12;;;;;;;0.35;0.35;;;9.50;99.90;;;;;;5022737;28;20207;-75
2021/04/22 08:25:45;;;;;;;1.23;0.75;;;9.50;99.90;;;;;;5028427;28;20161;-75
2021/04/22 08:28:12;;;;;;;0.35;0.35;;;9.70;99.90;;;;;;5028060;28;20165;-75
2021/04/22 08:30:44;;;;;;;15.88;0.77;;;9.80;99.90;;;;;;5025479;28;20169;-77
2021/04/22 08:33:12;;;;;;;0.40;0.40;;;9.90;99.90;;;;;;5015254;28;20275;-76
2021/04/22 08:35:37;;;;;;;1.33;1.08;;;9.90;99.90;;;;;;5014683;28;20255;-77
2021/04/22 08:38:03;;;;;;;7.32;0.65;;;9.90;99.90;;;;;;5013568;28;20192;-79
2021/04/22 08:40:29;;;;;;;1.02;0.85;;;10.00;99.90;;;;;;5012354;28;20509;-75
2021/04/22 08:42:56;;;;;;;1.20;1.17;;;10.20;99.90;;;;;;5012026;28;20207;-76
2021/04/22 08:45:21;;;;;;;0.20;0.20;;;10.20;99.90;;;;;;5028381;28;20171;-76
2021/04/22 08:47:50;;;;;;;2.45;1.05;;;9.90;99.90;;;;;;5013112;28;20196;-76
2021/04/22 08:50:28;;;;;;;13.93;1.90;;;9.60;99.90;;;;;;5013224;28;20164;-77
2021/04/22 08:52:58;;;;;;;0.50;0.32;;;10.00;99.90;;;;;;5012926;28;20326;-76
2021/04/22 08:55:30;;;;;;;3.05;2.72;;;10.10;99.90;;;;;;5011869;28;20187;-77
2021/04/22 08:58:00;;;;;;;1.15;1.13;;;10.30;99.90;;;;;;5028151;28;20547;-77
2021/04/22 09:00:29;;;;;;;0.20;0.20;;;10.30;99.90;;;;;;5012975;28;20220;-77
2021/04/22 09:02:55;;;;;;;0.20;0.20;;;10.20;99.90;;;;;;5012887;28;20204;-76
2021/04/22 09:05:22;;;;;;;0.82;0.82;;;10.20;99.90;;;;;;5013203;28;20160;-77
2021/04/22 09:07:47;;;;;;;0.40;0.40;;;10.40;99.90;;;;;;5012995;28;20238;-76
2021/04/22 09:10:16;;;;;;;2.40;1.30;;;10.50;99.90;;;;;;5012918;28;20185;-76
2021/04/22 09:12:53;;;;;;;1.58;0.73;;;10.40;99.90;;;;;;5028175;28;20203;-77
2021/04/22 09:15:19;;;;;;;5.60;0.90;;;10.40;99.90;;;;;;5013025;28;20167;-76
2021/04/22 09:17:54;;;;;;;1.77;1.00;;;10.60;99.90;;;;;;5011890;28;20255;-76
2021/04/22 09:20:29;;;;;;;0.90;0.52;;;10.60;99.90;;;;;;5012827;28;20703;-76
2021/04/22 09:22:55;;;;;;;6.57;1.42;;;10.70;99.90;;;;;;5012704;28;20500;-76
2021/04/22 09:25:23;;;;;;;0.30;0.30;;;10.70;99.90;;;;;;5012893;28;20153;-76
2021/04/22 09:27:49;;;;;;;5.68;0.88;;;10.70;99.90;;;;;;5013201;28;20554;-76
2021/04/22 09:30:16;;;;;;;5.85;3.15;;;10.60;99.90;;;;;;5013119;28;20691;-77
2021/04/22 09:32:42;;;;;;;1.08;1.08;;;10.70;99.90;;;;;;5012642;28;20240;-77
2021/04/22 09:35:11;;;;;;;8.68;1.58;;;10.80;99.90;;;;;;5012538;28;20164;-76
2021/04/22 09:37:49;;;;;;;3.50;2.25;;;11.10;99.90;;;;;;5012608;28;20192;-76
2021/04/22 09:40:27;;;;;;;0.20;0.20;;;10.90;99.90;;;;;;5012837;28;20240;-76
2021/04/22 09:42:53;;;;;;;0.82;0.82;;;10.90;99.90;;;;;;5016100;28;20307;-77
2021/04/22 09:45:21;;;;;;;7.78;3.03;;;10.90;99.90;;;;;;5016389;28;20157;-77
2021/04/22 09:47:47;;;;;;;16.65;1.38;;;10.90;99.90;;;;;;5016131;28;20663;-76
2021/04/22 09:50:21;;;;;;;4.70;1.40;;;10.90;99.90;;;;;;5016114;28;20173;-75
2021/04/22 09:52:52;;;;;;;0.63;0.63;;;10.90;99.90;;;;;;5014841;28;20231;-76
2021/04/22 09:55:20;;;;;;;0.50;0.50;;;11.00;99.90;;;;;;5016028;28;20683;-77
2021/04/22 09:57:46;;;;;;;0.30;0.30;;;11.10;99.90;;;;;;5015685;28;20187;-78
2021/04/22 10:00:28;;;;;;;3.03;1.80;;;11.00;99.90;;;;;;5016073;28;20211;-75
2021/04/22 10:02:56;;;;;;;0.32;0.32;;;11.00;99.90;;;;;;5015884;28;20211;-76
2021/04/22 10:05:26;;;;;;;0.40;0.40;;;11.00;99.90;;;;;;5031006;28;20240;-76
2021/04/22 10:08:03;;;;;;;2.80;1.63;;;11.10;99.90;;;;;;5015961;28;20220;-74
2021/04/22 10:10:29;;;;;;;1.92;1.83;;;11.30;99.90;;;;;;5014686;28;20182;-74
2021/04/22 10:13:04;;;;;;;2.13;0.73;;;11.30;99.90;;;;;;5015947;28;20169;-74
2021/04/22 10:15:33;;;;;;;0.22;0.22;;;11.50;99.90;;;;;;5015710;28;20175;-74
2021/04/22 10:18:04;;;;;;;1.08;1.05;;;11.70;99.90;;;;;;5016012;28;20165;-74
2021/04/22 10:20:36;;;;;;;9.43;1.75;;;11.80;99.90;;;;;;5015710;28;20164;-74
2021/04/22 10:23:02;;;;;;;0.73;0.73;;;11.70;99.90;;;;;;5015339;28;20303;-74
2021/04/22 10:25:34;;;;;;;0.32;0.32;;;11.70;99.90;;;;;;5016064;28;20554;-74
2021/04/22 10:28:16;;;;;;;3.15;0.73;;;11.60;99.90;;;;;;5015850;28;20165;-74
2021/04/22 10:30:44;;;;;;;0.75;0.75;;;11.60;99.90;;;;;;5014362;28;20532;-74
2021/04/22 10:33:11;;;;;;;0.68;0.60;;;11.60;99.90;;;;;;5015658;28;20524;-74
2021/04/22 10:35:40;;;;;;;2.00;1.42;;;11.50;99.90;;;;;;5018993;28;20673;-74
2021/04/22 10:38:07;;;;;;;0.63;0.63;;;11.60;99.90;;;;;;5015326;28;20260;-74
2021/04/22 10:40:42;;;;;;;2.22;1.67;;;11.70;99.90;;;;;;5030463;28;20218;-74
2021/04/22 10:43:14;;;;;;;6.03;0.65;;;11.70;99.90;;;;;;5015237;28;20200;-77
2021/04/22 10:45:40;;;;;;;1.33;1.25;;;11.80;99.90;;;;;;5015086;28;20179;-74
2021/04/22 10:48:06;;;;;;;1.23;1.05;;;11.80;99.90;;;;;;5015249;28;20548;-75
2021/04/22 10:50:38;;;;;;;2.10;0.98;;;11.90;99.90;;;;;;5015205;28;20218;-76
2021/04/22 10:53:16;;;;;;;0.98;0.68;;;12.00;99.90;;;;;;5014176;28;20172;-74
2021/04/22 10:55:44;;;;;;;0.68;0.68;;;11.90;99.90;;;;;;5015074;28;20171;-74
2021/04/22 10:58:21;;;;;;;1.88;1.75;;;11.80;99.90;;;;;;5014948;28;20172;-74
2021/04/22 11:00:50;;;;;;;1.02;1.02;;;12.00;99.90;;;;;;5014516;28;20707;-74
2021/04/22 11:03:44;;;;;;;1.15;1.08;;;12.00;99.90;;;;;;5014821;28;20200;-74
2021/04/22 11:06:21;;;;;;;0.60;0.60;;;12.10;99.90;;;;;;5014277;28;20596;-74
2021/04/22 11:08:55;;;;;;;0.30;0.30;;;12.10;99.90;;;;;;5014639;28;20160;-74
2021/04/22 11:11:29;;;;;;;4.30;1.10;;;12.00;99.90;;;;;;5014648;28;20649;-74
2021/04/22 11:14:14;;;;;;;1.92;1.83;;;12.10;99.90;;;;;;5014695;28;20241;-74
2021/04/22 11:16:54;;;;;;;0.95;0.95;;;12.00;99.90;;;;;;5014662;28;20259;-76
2021/04/22 11:19:30;;;;;;;0.30;0.30;;;12.00;99.90;;;;;;5014673;28;20549;-75
2021/04/22 11:22:01;;;;;;;0.60;0.60;;;12.20;99.90;;;;;;5014425;28;20168;-75
2021/04/22 11:24:30;;;;;;;0.20;0.20;;;12.20;99.90;;;;;;5014460;28;20230;-74
2021/04/22 11:27:04;;;;;;;9.15;2.28;;;12.20;99.90;;;;;;5014488;28;20314;-76
2021/04/22 11:29:42;;;;;;;9.57;1.35;;;12.20;99.90;;;;;;5014482;28;20188;-75
2021/04/22 11:32:25;;;;;;;2.38;1.52;;;12.50;99.90;;;;;;5014543;28;20156;-75
2021/04/22 11:35:05;;;;;;;9.18;1.70;;;12.30;99.90;;;;;;5014057;28;20173;-74
2021/04/22 11:37:36;;;;;;;0.60;0.60;;;12.20;99.90;;;;;;5013806;28;20218;-74
2021/04/22 11:40:18;;;;;;;0.55;0.55;;;12.30;99.90;;;;;;5013896;28;20219;-74
2021/04/22 11:42:47;;;;;;;2.58;0.68;;;12.50;99.90;;;;;;5013590;28;20704;-75
2021/04/22 11:45:16;;;;;;;11.70;0.85;;;12.60;99.90;;;;;;5013989;28;20186;-74
2021/04/22 11:48:11;;;;;;;0.60;0.60;;;12.70;99.90;;;;;;5013793;28;20188;-74
2021/04/22 11:50:44;;;;;;;1.90;1.50;;;12.60;99.90;;;;;;5013488;28;20203;-76
2021/04/22 11:53:12;;;;;;;0.30;0.30;;;12.50;99.90;;;;;;5014065;28;20175;-74
2021/04/22 11:55:44;;;;;;;0.95;0.63;;;12.60;99.90;;;;;;5013951;28;20168;-75
2021/04/22 11:58:16;;;;;;;0.60;0.60;;;12.70;99.90;;;;;;5014056;28;20161;-75
2021/04/22 12:00:58;;;;;;;6.53;1.77;;;12.70;99.90;;;;;;5013590;28;20698;-75
2021/04/22 12:03:26;;;;;;;0.70;0.70;;;12.60;99.90;;;;;;5013807;28;20228;-75
2021/04/22 12:05:53;;;;;;;1.35;1.27;;;12.60;99.90;;;;;;5013445;28;20176;-75
2021/04/22 12:08:27;;;;;;;2.70;2.17;;;12.50;99.90;;;;;;5028557;28;20212;-74
2021/04/22 12:10:53;;;;;;;0.88;0.85;;;12.50;98.80;;;;;;5013369;28;20169;-74
2021/04/22 12:13:21;;;;;;;0.75;0.75;;;12.30;98.60;;;;;;5013095;28;20287;-74
2021/04/22 12:15:52;;;;;;;0.20;0.20;;;12.50;99.80;;;;;;5011898;28;20226;-74
2021/04/22 12:18:33;;;;;;;3.28;1.98;;;12.60;99.50;;;;;;5013176;28;20191;-75
2021/04/22 12:21:15;;;;;;;2.17;0.57;;;12.70;99.60;;;;;;5013045;28;20171;-76
2021/04/22 12:23:44;;;;;;;0.63;0.63;;;12.60;99.90;;;;;;5013071;28;20199;-74
2021/04/22 12:26:21;;;;;;;0.50;0.50;;;12.70;99.90;;;;;;5013582;28;20180;-75
2021/04/22 12:28:57;;;;;;;0.60;0.60;;;12.70;99.90;;;;;;5013140;28;20188;-75
2021/04/22 12:31:30;;;;;;;0.68;0.68;;;12.80;99.90;;;;;;5013485;28;20195;-75
2021/04/22 12:34:00;;;;;;;1.95;1.40;;;12.90;99.90;;;;;;5013378;28;20613;-75
2021/04/22 12:36:26;;;;;;;0.40;0.40;;;13.10;99.90;;;;;;5013259;28;20238;-75
2021/04/22 12:38:51;;;;;;;0.85;0.85;;;13.20;99.90;;;;;;5013346;28;20560;-75
2021/04/22 12:41:19;;;;;;;3.05;0.30;;;13.10;99.90;;;;;;5013281;28;20160;-76
2021/04/22 12:43:49;;;;;;;0.50;0.50;;;13.30;99.90;;;;;;5013056;28;20251;-75
2021/04/22 12:46:21;;;;;;;1.00;1.00;;;13.20;99.70;;;;;;5011936;28;20188;-74
2021/04/22 12:49:00;;;;;;;2.28;1.40;;;13.40;99.00;;;;;;5028298;28;20164;-75
2021/04/22 12:51:37;;;;;;;5.72;1.13;;;13.20;99.80;;;;;;5013214;28;20164;-76
2021/04/22 12:54:04;;;;;;;0.90;0.90;;;13.20;99.40;;;;;;5012767;28;20183;-76
2021/04/22 12:56:32;;;;;;;2.28;0.98;;;13.20;99.40;;;;;;5011685;28;20271;-75